createdAt,value
2018-06-03T00:02:06.588Z,18.60
2018-06-03T00:06:58.117Z,18.60
2018-06-03T00:11:50.360Z,18.70
2018-06-03T00:16:42.685Z,18.90
2018-06-03T00:21:42.159Z,18.80
2018-06-03T00:26:33.684Z,18.80
2018-06-03T00:31:25.215Z,18.80
2018-06-03T00:36:35.137Z,18.90
2018-06-03T00:41:26.631Z,18.80
2018-06-03T00:46:18.150Z,18.70
2018-06-03T00:51:09.695Z,18.70
2018-06-03T00:56:01.210Z,18.70
2018-06-03T01:00:53.458Z,18.60
2018-06-03T01:05:45.721Z,18.60
2018-06-03T01:10:37.239Z,18.60
2018-06-03T01:15:29.493Z,18.60
2018-06-03T01:20:21.754Z,18.60
2018-06-03T01:25:14.041Z,18.60
2018-06-03T01:30:05.585Z,18.50
2018-06-03T01:34:57.070Z,18.60
2018-06-03T01:39:49.340Z,18.60
2018-06-03T01:44:40.874Z,18.50
2018-06-03T01:49:32.408Z,18.50
2018-06-03T01:54:23.923Z,18.50
2018-06-03T01:59:16.800Z,18.50
2018-06-03T02:04:08.319Z,18.40
2018-06-03T02:09:00.600Z,18.60
2018-06-03T02:13:52.131Z,18.50
2018-06-03T02:18:43.631Z,18.80
2018-06-03T02:23:35.894Z,18.70
2018-06-03T02:28:28.158Z,18.70
2018-06-03T02:33:19.663Z,18.70
2018-06-03T02:38:11.930Z,18.50
2018-06-03T02:43:04.268Z,18.30
2018-06-03T02:47:56.529Z,18.30
2018-06-03T02:52:48.795Z,18.30
2018-06-03T02:57:40.309Z,18.30
2018-06-03T03:02:32.543Z,18.10
2018-06-03T03:07:24.050Z,18.10
2018-06-03T03:12:15.550Z,18.10
2018-06-03T03:17:08.153Z,18.10
2018-06-03T03:21:59.677Z,18.10
2018-06-03T03:26:51.177Z,17.40
2018-06-03T03:31:42.697Z,18.00
2018-06-03T03:36:34.243Z,18.00
2018-06-03T03:41:25.784Z,18.10
2018-06-03T03:46:18.123Z,18.10
2018-06-03T03:51:10.375Z,18.20
2018-06-03T03:56:01.862Z,18.10
2018-06-03T04:00:53.376Z,18.30
2018-06-03T04:05:44.921Z,18.50
2018-06-03T04:10:36.408Z,18.40
2018-06-03T04:15:28.199Z,18.40
2018-06-03T04:20:19.781Z,18.50
2018-06-03T04:25:12.057Z,18.50
2018-06-03T04:30:03.593Z,18.50
2018-06-03T04:34:55.091Z,18.50
2018-06-03T04:39:47.371Z,18.40
2018-06-03T04:44:38.880Z,18.40
2018-06-03T04:49:31.141Z,18.90
2018-06-03T04:54:22.639Z,18.80
2018-06-03T04:59:15.696Z,19.30
2018-06-03T05:04:07.215Z,19.30
2018-06-03T05:08:58.905Z,19.40
2018-06-03T05:13:51.123Z,19.50
2018-06-03T05:18:42.724Z,19.50
2018-06-03T05:23:34.250Z,19.90
2018-06-03T05:28:25.764Z,20.10
2018-06-03T05:33:18.018Z,20.40
2018-06-03T05:38:10.276Z,20.90
2018-06-03T05:43:01.797Z,20.80
2018-06-03T05:47:54.058Z,21.40
2018-06-03T05:52:45.570Z,21.40
2018-06-03T05:57:37.822Z,22.30
2018-06-03T06:02:30.115Z,21.90
2018-06-03T06:07:21.705Z,21.80
2018-06-03T06:12:13.247Z,21.50
2018-06-03T06:17:05.538Z,22.10
2018-06-03T06:21:57.335Z,22.10
2018-06-03T06:26:49.606Z,22.80
2018-06-03T06:31:41.893Z,22.70
2018-06-03T06:36:33.519Z,22.70
2018-06-03T06:41:25.044Z,23.00
2018-06-03T06:46:16.574Z,23.70
2018-06-03T06:51:08.111Z,24.90
2018-06-03T06:55:59.701Z,26.10
2018-06-03T07:00:51.295Z,27.30
2018-06-03T07:05:42.817Z,29.90
2018-06-03T07:10:34.332Z,29.60
2018-06-03T07:15:25.843Z,29.70
2018-06-03T07:20:17.331Z,28.70
2018-06-03T07:25:08.861Z,28.60
2018-06-03T07:30:00.407Z,27.80
2018-06-03T07:34:51.977Z,27.20
2018-06-03T07:39:43.485Z,27.20
2018-06-03T07:44:35.075Z,27.80
2018-06-03T07:49:28.399Z,30.20
2018-06-03T07:54:19.987Z,30.20
2018-06-03T07:59:12.249Z,30.30
2018-06-03T08:04:03.848Z,30.30
2018-06-03T08:08:55.379Z,30.90
2018-06-03T08:13:46.914Z,31.70
2018-06-03T08:18:38.426Z,33.10
2018-06-03T08:23:29.914Z,33.90
2018-06-03T08:28:21.429Z,33.60
2018-06-03T08:33:13.677Z,37.60
2018-06-03T08:38:06.065Z,35.40
2018-06-03T08:42:57.555Z,35.30
2018-06-03T08:47:49.099Z,34.10
2018-06-03T08:52:41.347Z,32.90
2018-06-03T08:57:32.872Z,32.80
2018-06-03T09:02:24.390Z,30.90
2018-06-03T09:07:15.898Z,29.90
2018-06-03T09:12:38.480Z,30.00
2018-06-03T09:17:31.767Z,30.80
2018-06-03T09:22:25.072Z,31.70
2018-06-03T09:32:11.502Z,34.40
2018-06-03T09:37:04.779Z,35.70
2018-06-03T09:41:58.090Z,36.30
2018-06-03T09:46:51.390Z,36.90
2018-06-03T09:51:44.647Z,36.50
2018-06-03T09:56:38.042Z,34.70
2018-06-03T10:01:31.332Z,33.50
2018-06-03T10:06:24.609Z,33.10
2018-06-03T10:11:17.894Z,33.80
2018-06-03T10:16:11.329Z,33.80
2018-06-03T10:21:04.606Z,33.10
2018-06-03T10:25:57.901Z,33.00
2018-06-03T10:30:51.178Z,32.10
2018-06-03T10:35:44.500Z,31.00
2018-06-03T10:40:37.842Z,29.90
2018-06-03T10:50:24.340Z,29.00
2018-06-03T10:55:17.666Z,28.60
2018-06-03T11:00:10.993Z,28.40
2018-06-03T11:05:04.402Z,28.60
2018-06-03T11:09:57.736Z,29.20
2018-06-03T11:14:51.048Z,29.60
2018-06-03T11:19:44.378Z,30.30
2018-06-03T11:29:30.909Z,31.20
2018-06-03T11:34:24.280Z,31.80
2018-06-03T11:44:10.812Z,31.20
2018-06-03T11:49:04.111Z,30.50
2018-06-03T11:53:57.379Z,30.50
2018-06-03T11:58:52.307Z,30.00
2018-06-03T12:03:45.668Z,30.10
2018-06-03T12:08:39.135Z,30.40
2018-06-03T12:13:32.472Z,29.90
2018-06-03T12:18:25.828Z,29.70
2018-06-03T12:23:19.125Z,29.10
2018-06-03T12:28:12.401Z,29.20
2018-06-03T12:33:05.714Z,29.00
2018-06-03T12:37:59.013Z,29.00
2018-06-03T12:52:38.720Z,28.50
2018-06-03T12:57:32.001Z,28.40
2018-06-03T13:02:25.357Z,28.80
2018-06-03T13:07:18.647Z,29.40
2018-06-03T13:12:11.943Z,30.00
2018-06-03T13:17:05.274Z,30.40
2018-06-03T13:21:58.547Z,30.60
2018-06-03T13:26:52.037Z,30.60
2018-06-03T13:31:45.603Z,30.10
2018-06-03T13:36:38.899Z,29.80
2018-06-03T13:41:32.196Z,29.50
2018-06-03T13:46:25.519Z,29.20
2018-06-03T13:51:18.809Z,29.10
2018-06-03T13:56:12.078Z,28.90
2018-06-03T14:01:05.408Z,29.00
2018-06-03T14:05:58.746Z,29.10
2018-06-03T14:10:52.002Z,29.00
2018-06-03T14:15:45.254Z,28.50
2018-06-03T14:25:31.798Z,28.50
2018-06-03T14:30:25.105Z,29.00
2018-06-03T14:35:18.387Z,29.20
2018-06-03T14:40:11.701Z,29.30
2018-06-03T14:45:05.012Z,29.30
2018-06-03T14:49:58.307Z,29.50
2018-06-03T14:54:51.606Z,29.40
2018-06-03T14:59:44.822Z,29.10
2018-06-03T15:04:38.126Z,28.60
2018-06-03T15:09:31.395Z,28.60
2018-06-03T15:14:24.660Z,28.60
2018-06-03T15:19:17.966Z,28.90
2018-06-03T15:24:11.290Z,28.90
2018-06-03T15:33:57.993Z,28.60
2018-06-03T15:38:51.281Z,29.00
2018-06-03T15:43:44.621Z,28.70
2018-06-03T15:48:37.900Z,28.20
2018-06-03T16:03:17.782Z,28.00
2018-06-03T16:08:10.942Z,28.20
2018-06-03T16:13:04.288Z,27.80
2018-06-03T16:17:57.572Z,27.80
2018-06-03T16:22:50.905Z,28.00
2018-06-03T16:27:44.164Z,28.00
2018-06-03T16:32:37.414Z,27.40
2018-06-03T16:37:30.708Z,27.40
2018-06-03T16:42:23.981Z,26.80
2018-06-03T16:47:17.257Z,27.00
2018-06-03T16:52:10.550Z,26.90
2018-06-03T16:57:03.969Z,26.90
2018-06-03T17:01:57.321Z,26.70
2018-06-03T17:06:50.753Z,26.80
2018-06-03T17:11:44.235Z,26.80
2018-06-03T17:16:37.558Z,26.60
2018-06-03T17:21:30.959Z,26.20
2018-06-03T17:26:24.279Z,26.30
2018-06-03T17:36:10.823Z,26.10
2018-06-03T17:41:04.338Z,26.00
2018-06-03T17:45:57.667Z,25.80
2018-06-03T17:50:51.321Z,25.70
2018-06-03T17:55:45.234Z,25.40
2018-06-03T18:00:38.525Z,25.40
2018-06-03T18:05:32.202Z,25.10
2018-06-03T18:10:25.477Z,24.90
2018-06-03T18:15:20.270Z,24.60
2018-06-03T18:20:13.674Z,24.60
2018-06-03T18:25:06.953Z,24.60
2018-06-03T18:30:00.269Z,24.50
2018-06-03T18:44:39.952Z,24.00
2018-06-03T18:49:33.425Z,23.90
2018-06-03T18:54:26.733Z,23.80
2018-06-03T18:59:20.062Z,23.70
2018-06-03T19:04:13.486Z,23.60
2018-06-03T19:09:07.492Z,23.50
2018-06-03T19:18:54.060Z,23.10
2018-06-03T19:23:47.389Z,23.00
2018-06-03T19:28:40.736Z,22.90
2018-06-03T19:33:34.085Z,22.70
2018-06-03T19:38:27.365Z,22.60
2018-06-03T19:43:20.757Z,22.60
2018-06-03T19:48:14.254Z,22.40
2018-06-03T19:53:07.609Z,22.30
2018-06-03T19:58:00.896Z,22.20
2018-06-03T20:02:54.225Z,22.10
2018-06-03T20:07:47.542Z,21.90
2018-06-03T20:12:40.873Z,21.80
2018-06-03T20:17:34.294Z,21.70
2018-06-03T20:22:27.610Z,21.60
2018-06-03T20:27:20.949Z,21.60
2018-06-03T20:32:14.366Z,21.40
2018-06-03T20:37:07.688Z,21.30
2018-06-03T20:42:01.090Z,21.20
2018-06-03T20:46:54.589Z,21.10
2018-06-03T20:51:47.909Z,20.90
2018-06-03T21:01:34.691Z,20.80
2018-06-03T21:06:27.991Z,20.70
2018-06-03T21:11:21.368Z,20.70
2018-06-03T21:16:14.711Z,20.70
2018-06-03T21:21:08.008Z,20.70
2018-06-03T21:26:01.301Z,20.70
2018-06-03T21:30:54.606Z,20.60
2018-06-03T21:35:47.864Z,20.50
2018-06-03T21:40:41.152Z,20.40
2018-06-03T21:45:34.400Z,20.30
2018-06-03T21:50:27.707Z,20.30
2018-06-03T21:55:20.957Z,20.20
2018-06-03T22:00:14.231Z,20.10
2018-06-03T22:05:07.571Z,20.00
2018-06-03T22:10:00.844Z,19.90
2018-06-03T22:14:54.178Z,19.50
2018-06-03T22:19:50.050Z,19.70
2018-06-03T22:24:43.348Z,19.60
2018-06-03T22:29:36.655Z,19.50
2018-06-03T22:34:29.950Z,19.50
2018-06-03T22:44:16.553Z,19.30
2018-06-03T22:49:09.833Z,19.20
2018-06-03T22:54:03.135Z,19.00
2018-06-03T22:58:56.420Z,19.00
2018-06-03T23:03:49.775Z,18.80
2018-06-03T23:08:43.084Z,18.80
2018-06-03T23:23:22.742Z,18.60
2018-06-03T23:28:15.994Z,18.60
2018-06-03T23:33:09.302Z,18.50
2018-06-03T23:38:02.554Z,18.50
2018-06-03T23:42:55.840Z,18.40
2018-06-03T23:47:49.084Z,18.30
2018-06-03T23:57:35.487Z,18.10
